Oberon — SKJF — position and weather

sailwx.info

Track history (hours):
 
Tides and Currents Weather Stations Pressure Air Temp Water Temp Dewpoint Dewpoint Depression Visibility Wind Speed Wind Dir Waves Ship Positions

Oberon

Last reported at 2017-Apr-28 23:31 UTC. Time now 2017-Apr-28 23:52 UTC.
Position N 47°16' W 122°23'.

Length 232 m; draft 8.7 m.

Type: Cargo ship. MMSI: 266283000.

Date/timePositionNaut miles runAvg speedWind from/ knotsBaromVisibWave heightAir tempDewpointWater temp
2017-Apr-28 23:31N 47°16' W 122°23'0 0.1
2017-Apr-28 22:58N 47°16' W 122°23'1 2.9
2017-Apr-28 22:30N 47°17' W 122°25'2 3.9
2017-Apr-28 22:00N 47°18' W 122°27'713.2
2017-Apr-28 21:31N 47°23' W 122°22'918.1
2017-Apr-28 21:00N 47°32' W 122°27'918.5
2017-Apr-28 20:31N 47°41' W 122°28'918.9
2017-Apr-28 20:01N 47°50' W 122°28'816.8
2017-Apr-28 19:30N 47°58' W 122°35'816.1
2017-Apr-28 19:00N 48°05' W 122°39'715.0
2017-Apr-28 18:30N 48°10' W 122°47'917.7
2017-Apr-28 18:00N 48°12' W 123°00'918.0
2017-Apr-28 17:30N 48°12' W 123°14'814.9
2017-Apr-28 17:00N 48°11' W 123°25'612.0
2017-Apr-28 16:31N 48°13' W 123°33'815.2
2017-Apr-28 16:00N 48°13' W 123°45'815.9
2017-Apr-28 15:30N 48°14' W 123°57'815.7
2017-Apr-28 15:00N 48°17' W 124°07'1616.3
2017-Apr-28 14:00N 48°24' W 124°29'816.3
2017-Apr-28 13:30N 48°28' W 124°40'816.2
2017-Apr-28 12:59N 48°29' W 124°53'715.2
2017-Apr-28 12:30N 48°25' W 125°03'916.7
2017-Apr-28 12:00N 48°17' W 125°08'816.5
2017-Apr-28 11:30N 48°09' W 125°11'7616.3
2017-Apr-28 06:51N 46°55' W 125°31'716.5
2017-Apr-28 06:25N 46°48' W 125°32'716.3
2017-Apr-28 06:00N 46°41' W 125°34'816.5
2017-Apr-28 05:30N 46°33' W 125°36'816.7
2017-Apr-28 05:00N 46°25' W 125°37'916.6
2017-Apr-28 04:29N 46°16' W 125°39'1016.5
2017-Apr-28 03:53N 46°06' W 125°41'716.5
2017-Apr-28 03:30N 45°60' W 125°42'816.5
2017-Apr-28 02:59N 45°52' W 125°43'46016.8
2017-Apr-26 23:37N 38°15' W 124°25'216.5
2017-Apr-26 23:28N 38°13' W 124°23'916.7
2017-Apr-26 22:57N 38°06' W 124°18'816.8
2017-Apr-26 22:30N 37°59' W 124°13'816.9
2017-Apr-26 22:00N 37°52' W 124°08'917.0
2017-Apr-26 21:30N 37°45' W 124°02'917.2
2017-Apr-26 21:00N 37°37' W 123°56'9417.9
2017-Apr-26 15:46N 36°21' W 122°48'518.0
2017-Apr-26 15:30N 36°17' W 122°44'918.4
2017-Apr-26 15:00N 36°10' W 122°37'918.3
2017-Apr-26 14:30N 36°03' W 122°30'1818.1
2017-Apr-26 13:30N 35°49' W 122°16'917.6
2017-Apr-26 13:00N 35°42' W 122°09'917.9
2017-Apr-26 12:30N 35°35' W 122°02'1718.0
2017-Apr-26 11:33N 35°22' W 121°48'117.2
2017-Apr-26 11:30N 35°21' W 121°48'917.9
2017-Apr-26 11:00N 35°15' W 121°41'917.6
2017-Apr-26 10:30N 35°08' W 121°34'917.5
2017-Apr-26 10:01N 35°01' W 121°27'917.2
2017-Apr-26 09:31N 34°54' W 121°21'917.1
2017-Apr-26 09:00N 34°48' W 121°14'917.3
2017-Apr-26 08:31N 34°41' W 121°08'816.7
2017-Apr-26 08:00N 34°35' W 121°00'816.6
2017-Apr-26 07:30N 34°28' W 120°54'816.6
2017-Apr-26 07:00N 34°25' W 120°45'917.9
2017-Apr-26 06:30N 34°22' W 120°35'917.6
2017-Apr-26 06:00N 34°20' W 120°24'918.0
2017-Apr-26 05:30N 34°18' W 120°14'918.2
2017-Apr-26 05:00N 34°15' W 120°03'917.8
2017-Apr-26 04:28N 34°13' W 119°52'817.9
2017-Apr-26 04:00N 34°11' W 119°43'917.8
2017-Apr-26 03:28N 34°08' W 119°32'817.2
2017-Apr-26 03:00N 34°06' W 119°22'712.6
2017-Apr-26 02:29N 34°07' W 119°14'3 5.3
2017-Apr-26 01:59N 34°09' W 119°12'0 0.0
2017-Apr-26 01:30N 34°09' W 119°12'0 0.0
2017-Apr-26 00:59N 34°09' W 119°12'0 0.0
2017-Apr-26 00:29N 34°09' W 119°12'0 0.0
2017-Apr-25 23:59N 34°09' W 119°12'0 0.0
2017-Apr-25 23:23N 34°09' W 119°12'0 0.0
2017-Apr-25 22:59N 34°09' W 119°12'0 0.0
2017-Apr-25 22:26N 34°09' W 119°12'0 0.0
2017-Apr-25 21:59N 34°09' W 119°12'0 0.0
2017-Apr-25 21:29N 34°09' W 119°12'0 0.0
2017-Apr-25 20:59N 34°09' W 119°12'0 0.0
2017-Apr-25 20:29N 34°09' W 119°12'0 0.0
2017-Apr-25 19:59N 34°09' W 119°12'0 0.0
2017-Apr-25 19:29N 34°09' W 119°12'0 0.0
2017-Apr-25 18:59N 34°09' W 119°12'0 0.0
2017-Apr-25 18:14N 34°09' W 119°12'0 0.0
2017-Apr-24 13:37N 34°09' W 119°12'0 0.0
2017-Apr-24 13:30N 34°09' W 119°12'0 0.4
2017-Apr-24 13:00N 34°09' W 119°13'4 7.0
2017-Apr-24 12:29N 34°06' W 119°15'5 9.5
2017-Apr-24 12:00N 34°02' W 119°11'713.9
2017-Apr-24 11:29N 33°59' W 119°04'816.2
2017-Apr-24 11:00N 33°55' W 118°56'814.9
2017-Apr-24 10:30N 33°51' W 118°48'612.3
2017-Apr-24 10:00N 33°45' W 118°46'714.4
2017-Apr-24 09:30N 33°38' W 118°47'714.5
2017-Apr-24 09:00N 33°31' W 118°49'714.4
2017-Apr-24 08:30N 33°24' W 118°50'714.5
2017-Apr-24 08:01N 33°17' W 118°51'714.6
2017-Apr-24 07:30N 33°10' W 118°53'714.8
2017-Apr-24 07:00N 33°02' W 118°54'814.3
2017-Apr-24 06:27N 32°55' W 118°52'714.9
2017-Apr-24 06:00N 32°49' W 118°48'714.5
2017-Apr-24 05:31N 32°43' W 118°44'714.6
2017-Apr-24 05:00N 32°36' W 118°40'815.2
2017-Apr-24 04:31N 32°30' W 118°35'714.7
2017-Apr-24 04:00N 32°23' W 118°31'713.6
2017-Apr-24 03:30N 32°17' W 118°28'714.9
2017-Apr-24 03:00N 32°11' W 118°23'714.8
2017-Apr-24 02:30N 32°04' W 118°19'714.9
2017-Apr-24 02:01N 31°57' W 118°15'714.9
2017-Apr-24 01:31N 31°51' W 118°11'714.7
2017-Apr-24 01:00N 31°44' W 118°07'815.2
2017-Apr-24 00:30N 31°38' W 118°03'714.9
2017-Apr-24 00:00N 31°31' W 117°58'714.6
2017-Apr-23 23:31N 31°25' W 117°55'814.8
2017-Apr-23 23:00N 31°18' W 117°51'715.2
2017-Apr-23 22:31N 31°11' W 117°46'714.9
2017-Apr-23 22:01N 31°05' W 117°42'714.9
2017-Apr-23 21:30N 30°58' W 117°38'714.7
2017-Apr-23 21:01N 30°52' W 117°34'714.8
2017-Apr-23 20:31N 30°45' W 117°30'714.7
2017-Apr-23 20:00N 30°39' W 117°26'714.8
2017-Apr-23 19:30N 30°32' W 117°22'814.6
2017-Apr-23 18:57N 30°25' W 117°18'913.4
2017-Apr-23 18:14N 30°16' W 117°12'312.7
2017-Apr-23 18:00N 30°14' W 117°11'612.0
2017-Apr-23 17:30N 30°09' W 117°07'1314.5
2017-Apr-23 16:38N 29°57' W 117°01'214.6
2017-Apr-23 16:30N 29°56' W 116°60'2214.6
2017-Apr-23 15:01N 29°37' W 116°48'014.6
2017-Apr-23 14:59N 29°36' W 116°47'1714.5
2017-Apr-23 13:48N 29°21' W 116°38'514.7
2017-Apr-23 13:26N 29°16' W 116°35'614.5
2017-Apr-23 13:00N 29°11' W 116°32'1414.3
2017-Apr-23 12:01N 28°59' W 116°24'014.1
2017-Apr-23 12:00N 28°58' W 116°24'714.3
2017-Apr-23 11:30N 28°52' W 116°20'714.4
2017-Apr-23 11:00N 28°46' W 116°17'5 9.9
2017-Apr-23 10:30N 28°41' W 116°14'5 8.9
2017-Apr-23 10:00N 28°37' W 116°12'4 9.0
2017-Apr-23 09:30N 28°33' W 116°10'5 9.4
2017-Apr-23 09:00N 28°29' W 116°07'5 9.2
2017-Apr-23 08:30N 28°25' W 116°04'5 9.5
2017-Apr-23 07:56N 28°20' W 116°01'4 9.6
2017-Apr-23 07:30N 28°17' W 115°59'28 9.2
2017-Apr-23 04:26N 27°52' W 115°44'8 9.5
2017-Apr-23 03:38N 27°46' W 115°39'11 9.4
2017-Apr-23 02:28N 27°37' W 115°31'6 9.0
2017-Apr-23 01:47N 27°32' W 115°27'3 9.2
2017-Apr-23 01:29N 27°30' W 115°25'4 9.3
2017-Apr-23 01:01N 27°27' W 115°22'5 9.8
2017-Apr-23 00:30N 27°23' W 115°19'5 9.8
2017-Apr-23 00:01N 27°19' W 115°15'19 9.5
2017-Apr-22 22:03N 27°04' W 115°03'0 9.5
2017-Apr-22 22:00N 27°04' W 115°02'24 8.9
2017-Apr-22 19:16N 26°44' W 114°46'2 8.8
2017-Apr-22 19:00N 26°43' W 114°44'7 8.7
2017-Apr-22 18:12N 26°37' W 114°39'2 8.6
2017-Apr-22 17:59N 26°36' W 114°38'7512.9
2017-Apr-22 12:10N 25°37' W 113°47'1314.8
2017-Apr-22 11:18N 25°26' W 113°38'  
Track history (hours):
 
Tides and Currents Weather Stations Pressure Air Temp Water Temp Dewpoint Dewpoint Depression Visibility Wind Speed Wind Dir Waves Ship Positions

Oberon

Last reported at 2017-Apr-28 23:31 UTC. Time now 2017-Apr-28 23:52 UTC.
Position N 47°16' W 122°23'.

Length 232 m; draft 8.7 m.

Type: Cargo ship. MMSI: 266283000.

Date/timePositionNaut miles runAvg speedWind from/ knotsBaromVisibWave heightAir tempDewpointWater temp
2017-Apr-28 23:31N 47°16' W 122°23'0 0.1
2017-Apr-28 22:58N 47°16' W 122°23'1 2.9
2017-Apr-28 22:30N 47°17' W 122°25'2 3.9
2017-Apr-28 22:00N 47°18' W 122°27'713.2
2017-Apr-28 21:31N 47°23' W 122°22'918.1
2017-Apr-28 21:00N 47°32' W 122°27'918.5
2017-Apr-28 20:31N 47°41' W 122°28'918.9
2017-Apr-28 20:01N 47°50' W 122°28'816.8
2017-Apr-28 19:30N 47°58' W 122°35'816.1
2017-Apr-28 19:00N 48°05' W 122°39'715.0
2017-Apr-28 18:30N 48°10' W 122°47'917.7
2017-Apr-28 18:00N 48°12' W 123°00'918.0
2017-Apr-28 17:30N 48°12' W 123°14'814.9
2017-Apr-28 17:00N 48°11' W 123°25'612.0
2017-Apr-28 16:31N 48°13' W 123°33'815.2
2017-Apr-28 16:00N 48°13' W 123°45'815.9
2017-Apr-28 15:30N 48°14' W 123°57'815.7
2017-Apr-28 15:00N 48°17' W 124°07'1616.3
2017-Apr-28 14:00N 48°24' W 124°29'816.3
2017-Apr-28 13:30N 48°28' W 124°40'816.2
2017-Apr-28 12:59N 48°29' W 124°53'715.2
2017-Apr-28 12:30N 48°25' W 125°03'916.7
2017-Apr-28 12:00N 48°17' W 125°08'816.5
2017-Apr-28 11:30N 48°09' W 125°11'7616.3
2017-Apr-28 06:51N 46°55' W 125°31'716.5
2017-Apr-28 06:25N 46°48' W 125°32'716.3
2017-Apr-28 06:00N 46°41' W 125°34'816.5
2017-Apr-28 05:30N 46°33' W 125°36'816.7
2017-Apr-28 05:00N 46°25' W 125°37'916.6
2017-Apr-28 04:29N 46°16' W 125°39'1016.5
2017-Apr-28 03:53N 46°06' W 125°41'716.5
2017-Apr-28 03:30N 45°60' W 125°42'816.5
2017-Apr-28 02:59N 45°52' W 125°43'46016.8
2017-Apr-26 23:37N 38°15' W 124°25'216.5
2017-Apr-26 23:28N 38°13' W 124°23'916.7
2017-Apr-26 22:57N 38°06' W 124°18'816.8
2017-Apr-26 22:30N 37°59' W 124°13'816.9
2017-Apr-26 22:00N 37°52' W 124°08'917.0
2017-Apr-26 21:30N 37°45' W 124°02'917.2
2017-Apr-26 21:00N 37°37' W 123°56'9417.9
2017-Apr-26 15:46N 36°21' W 122°48'518.0
2017-Apr-26 15:30N 36°17' W 122°44'918.4
2017-Apr-26 15:00N 36°10' W 122°37'918.3
2017-Apr-26 14:30N 36°03' W 122°30'1818.1
2017-Apr-26 13:30N 35°49' W 122°16'917.6
2017-Apr-26 13:00N 35°42' W 122°09'917.9
2017-Apr-26 12:30N 35°35' W 122°02'1718.0
2017-Apr-26 11:33N 35°22' W 121°48'117.2
2017-Apr-26 11:30N 35°21' W 121°48'917.9
2017-Apr-26 11:00N 35°15' W 121°41'917.6
2017-Apr-26 10:30N 35°08' W 121°34'917.5
2017-Apr-26 10:01N 35°01' W 121°27'917.2
2017-Apr-26 09:31N 34°54' W 121°21'917.1
2017-Apr-26 09:00N 34°48' W 121°14'917.3
2017-Apr-26 08:31N 34°41' W 121°08'816.7
2017-Apr-26 08:00N 34°35' W 121°00'816.6
2017-Apr-26 07:30N 34°28' W 120°54'816.6
2017-Apr-26 07:00N 34°25' W 120°45'917.9
2017-Apr-26 06:30N 34°22' W 120°35'917.6
2017-Apr-26 06:00N 34°20' W 120°24'918.0
2017-Apr-26 05:30N 34°18' W 120°14'918.2
2017-Apr-26 05:00N 34°15' W 120°03'917.8
2017-Apr-26 04:28N 34°13' W 119°52'817.9
2017-Apr-26 04:00N 34°11' W 119°43'917.8
2017-Apr-26 03:28N 34°08' W 119°32'817.2
2017-Apr-26 03:00N 34°06' W 119°22'712.6
2017-Apr-26 02:29N 34°07' W 119°14'3 5.3
2017-Apr-26 01:59N 34°09' W 119°12'0 0.0
2017-Apr-26 01:30N 34°09' W 119°12'0 0.0
2017-Apr-26 00:59N 34°09' W 119°12'0 0.0
2017-Apr-26 00:29N 34°09' W 119°12'0 0.0
2017-Apr-25 23:59N 34°09' W 119°12'0 0.0
2017-Apr-25 23:23N 34°09' W 119°12'0 0.0
2017-Apr-25 22:59N 34°09' W 119°12'0 0.0
2017-Apr-25 22:26N 34°09' W 119°12'0 0.0
2017-Apr-25 21:59N 34°09' W 119°12'0 0.0
2017-Apr-25 21:29N 34°09' W 119°12'0 0.0
2017-Apr-25 20:59N 34°09' W 119°12'0 0.0
2017-Apr-25 20:29N 34°09' W 119°12'0 0.0
2017-Apr-25 19:59N 34°09' W 119°12'0 0.0
2017-Apr-25 19:29N 34°09' W 119°12'0 0.0
2017-Apr-25 18:59N 34°09' W 119°12'0 0.0
2017-Apr-25 18:14N 34°09' W 119°12'0 0.0
2017-Apr-24 13:37N 34°09' W 119°12'0 0.0
2017-Apr-24 13:30N 34°09' W 119°12'0 0.4
2017-Apr-24 13:00N 34°09' W 119°13'4 7.0
2017-Apr-24 12:29N 34°06' W 119°15'5 9.5
2017-Apr-24 12:00N 34°02' W 119°11'713.9
2017-Apr-24 11:29N 33°59' W 119°04'816.2
2017-Apr-24 11:00N 33°55' W 118°56'814.9
2017-Apr-24 10:30N 33°51' W 118°48'612.3
2017-Apr-24 10:00N 33°45' W 118°46'714.4
2017-Apr-24 09:30N 33°38' W 118°47'714.5
2017-Apr-24 09:00N 33°31' W 118°49'714.4
2017-Apr-24 08:30N 33°24' W 118°50'714.5
2017-Apr-24 08:01N 33°17' W 118°51'714.6
2017-Apr-24 07:30N 33°10' W 118°53'714.8
2017-Apr-24 07:00N 33°02' W 118°54'814.3
2017-Apr-24 06:27N 32°55' W 118°52'714.9
2017-Apr-24 06:00N 32°49' W 118°48'714.5
2017-Apr-24 05:31N 32°43' W 118°44'714.6
2017-Apr-24 05:00N 32°36' W 118°40'815.2
2017-Apr-24 04:31N 32°30' W 118°35'714.7
2017-Apr-24 04:00N 32°23' W 118°31'713.6
2017-Apr-24 03:30N 32°17' W 118°28'714.9
2017-Apr-24 03:00N 32°11' W 118°23'714.8
2017-Apr-24 02:30N 32°04' W 118°19'714.9
2017-Apr-24 02:01N 31°57' W 118°15'714.9
2017-Apr-24 01:31N 31°51' W 118°11'714.7
2017-Apr-24 01:00N 31°44' W 118°07'815.2
2017-Apr-24 00:30N 31°38' W 118°03'714.9
2017-Apr-24 00:00N 31°31' W 117°58'714.6
2017-Apr-23 23:31N 31°25' W 117°55'814.8
2017-Apr-23 23:00N 31°18' W 117°51'715.2
2017-Apr-23 22:31N 31°11' W 117°46'714.9
2017-Apr-23 22:01N 31°05' W 117°42'714.9
2017-Apr-23 21:30N 30°58' W 117°38'714.7
2017-Apr-23 21:01N 30°52' W 117°34'714.8
2017-Apr-23 20:31N 30°45' W 117°30'714.7
2017-Apr-23 20:00N 30°39' W 117°26'714.8
2017-Apr-23 19:30N 30°32' W 117°22'814.6
2017-Apr-23 18:57N 30°25' W 117°18'913.4
2017-Apr-23 18:14N 30°16' W 117°12'312.7
2017-Apr-23 18:00N 30°14' W 117°11'612.0
2017-Apr-23 17:30N 30°09' W 117°07'1314.5
2017-Apr-23 16:38N 29°57' W 117°01'214.6
2017-Apr-23 16:30N 29°56' W 116°60'2214.6
2017-Apr-23 15:01N 29°37' W 116°48'014.6
2017-Apr-23 14:59N 29°36' W 116°47'1714.5
2017-Apr-23 13:48N 29°21' W 116°38'514.7
2017-Apr-23 13:26N 29°16' W 116°35'614.5
2017-Apr-23 13:00N 29°11' W 116°32'1414.3
2017-Apr-23 12:01N 28°59' W 116°24'014.1
2017-Apr-23 12:00N 28°58' W 116°24'714.3
2017-Apr-23 11:30N 28°52' W 116°20'714.4
2017-Apr-23 11:00N 28°46' W 116°17'5 9.9
2017-Apr-23 10:30N 28°41' W 116°14'5 8.9
2017-Apr-23 10:00N 28°37' W 116°12'4 9.0
2017-Apr-23 09:30N 28°33' W 116°10'5 9.4
2017-Apr-23 09:00N 28°29' W 116°07'5 9.2
2017-Apr-23 08:30N 28°25' W 116°04'5 9.5
2017-Apr-23 07:56N 28°20' W 116°01'4 9.6
2017-Apr-23 07:30N 28°17' W 115°59'28 9.2
2017-Apr-23 04:26N 27°52' W 115°44'8 9.5
2017-Apr-23 03:38N 27°46' W 115°39'11 9.4
2017-Apr-23 02:28N 27°37' W 115°31'6 9.0
2017-Apr-23 01:47N 27°32' W 115°27'3 9.2
2017-Apr-23 01:29N 27°30' W 115°25'4 9.3
2017-Apr-23 01:01N 27°27' W 115°22'5 9.8
2017-Apr-23 00:30N 27°23' W 115°19'5 9.8
2017-Apr-23 00:01N 27°19' W 115°15'19 9.5
2017-Apr-22 22:03N 27°04' W 115°03'0 9.5
2017-Apr-22 22:00N 27°04' W 115°02'24 8.9
2017-Apr-22 19:16N 26°44' W 114°46'2 8.8
2017-Apr-22 19:00N 26°43' W 114°44'7 8.7
2017-Apr-22 18:12N 26°37' W 114°39'2 8.6
2017-Apr-22 17:59N 26°36' W 114°38'7512.9
2017-Apr-22 12:10N 25°37' W 113°47'1314.8
2017-Apr-22 11:18N 25°26' W 113°38'  

Dump ship's entire track history